Time;durP1;ratioP1;P1;durP2;ratioP2;P2;SDS_P1;SDS_P2;PMS_P1;PMS_P2;Temp;Humidity;BMP_temperature;BMP_pressure;BME280_temperature;BME280_humidity;BME280_pressure;Samples;Min_cycle;Max_cycle;Signal;HPM_P1;HPM_P2
2022/12/15 00:40:31;;;;;;;57.25;24.55;;;;;;;;;;5036944;28;20036;-87
2022/12/15 00:42:57;;;;;;;64.43;28.65;;;;;;;;;;5044074;28;20022;-84
2022/12/15 00:46:53;;;;;;;64.88;27.02;;;;;;;;;;5059664;28;20568;-86
2022/12/15 00:48:07;;;;;;;57.58;26.15;;;;;;;;;;5040105;28;20478;-87
2022/12/15 00:50:51;;;;;;;64.03;26.42;;;;;;;;;;5035498;28;20048;-87
2022/12/15 01:20:37;;;;;;;44.03;21.48;;;;;;;;;;5048991;28;20585;-86
2022/12/15 01:23:02;;;;;;;44.03;21.10;;;;;;;;;;5036527;28;20033;-86
2022/12/15 01:25:28;;;;;;;38.88;20.83;;;;;;;;;;5035765;28;20025;-86
2022/12/15 01:27:53;;;;;;;47.05;21.98;;;;;;;;;;5037276;28;20029;-85
2022/12/15 01:30:20;;;;;;;41.45;20.17;;;;;;;;;;5038351;28;20037;-85
2022/12/15 01:32:46;;;;;;;37.03;18.25;;;;;;;;;;5039711;28;20021;-85
2022/12/15 01:35:11;;;;;;;34.03;17.55;;;;;;;;;;5076461;28;20044;-84
2022/12/15 01:37:37;;;;;;;33.25;17.25;;;;;;;;;;5041691;28;20028;-84
2022/12/15 01:42:47;;;;;;;35.33;18.42;;;;;;;;;;5075645;28;20471;-83
2022/12/15 01:45:28;;;;;;;34.60;17.42;;;;;;;;;;5075433;28;20033;-83
2022/12/15 01:47:54;;;;;;;34.80;17.77;;;;;;;;;;5075335;28;20066;-83
2022/12/15 01:50:19;;;;;;;32.53;17.92;;;;;;;;;;5057483;28;20090;-83
2022/12/15 01:52:46;;;;;;;34.28;17.33;;;;;;;;;;5041022;28;20032;-83
2022/12/15 01:55:11;;;;;;;33.70;16.90;;;;;;;;;;5041059;28;20110;-82
2022/12/15 01:57:37;;;;;;;33.55;17.10;;;;;;;;;;5024269;28;20369;-82
2022/12/15 02:00:04;;;;;;;35.55;18.85;;;;;;;;;;5057375;28;20037;-82
2022/12/15 02:02:29;;;;;;;34.58;19.08;;;;;;;;;;5040740;28;20033;-82
2022/12/15 02:04:56;;;;;;;40.80;20.15;;;;;;;;;;5056723;28;20103;-82
2022/12/15 02:07:21;;;;;;;36.45;19.95;;;;;;;;;;5023717;28;20391;-84
2022/12/15 02:09:47;;;;;;;41.75;20.75;;;;;;;;;;5040432;28;20028;-82
2022/12/15 02:12:38;;;;;;;43.45;20.88;;;;;;;;;;5040040;28;20060;-82
2022/12/15 02:15:09;;;;;;;41.00;21.58;;;;;;;;;;5074734;28;20036;-82
2022/12/15 02:17:54;;;;;;;39.38;20.58;;;;;;;;;;5056841;28;20386;-81
2022/12/15 02:20:39;;;;;;;42.20;19.75;;;;;;;;;;5057898;28;20433;-81
2022/12/15 02:23:13;;;;;;;36.50;19.17;;;;;;;;;;5056917;28;20024;-81
2022/12/15 02:26:16;;;;;;;38.17;19.00;;;;;;;;;;5074711;28;20104;-82
2022/12/15 02:28:55;;;;;;;35.42;17.83;;;;;;;;;;5056891;28;20043;-81
2022/12/15 02:31:49;;;;;;;32.63;17.15;;;;;;;;;;5056612;28;20020;-81
2022/12/15 02:34:40;;;;;;;39.47;19.42;;;;;;;;;;5027045;28;20049;-81
2022/12/15 02:37:28;;;;;;;39.78;18.60;;;;;;;;;;5039561;28;20028;-81
2022/12/15 02:39:53;;;;;;;37.10;18.27;;;;;;;;;;5074432;28;20055;-81
2022/12/15 02:42:19;;;;;;;38.10;20.00;;;;;;;;;;5039951;28;20464;-82
2022/12/15 02:44:49;;;;;;;36.20;19.38;;;;;;;;;;5039740;28;20517;-81
2022/12/15 02:47:36;;;;;;;36.55;19.02;;;;;;;;;;5074634;28;20406;-82
2022/12/15 02:50:34;;;;;;;34.78;17.58;;;;;;;;;;5040422;28;20029;-82
2022/12/15 02:53:37;;;;;;;31.67;17.20;;;;;;;;;;5019350;28;20040;-82
2022/12/15 02:56:23;;;;;;;33.35;17.80;;;;;;;;;;5010181;28;20500;-82
2022/12/15 02:59:03;;;;;;;33.72;18.33;;;;;;;;;;5056872;28;20155;-82
2022/12/15 03:01:42;;;;;;;35.42;16.95;;;;;;;;;;5040088;28;20036;-82
2022/12/15 03:04:08;;;;;;;36.55;18.42;;;;;;;;;;5041324;28;20415;-82
2022/12/15 03:06:33;;;;;;;34.05;17.52;;;;;;;;;;5039886;28;20115;-82
2022/12/15 03:08:59;;;;;;;34.13;17.65;;;;;;;;;;5062059;28;20035;-82
2022/12/15 03:11:24;;;;;;;32.05;16.55;;;;;;;;;;5043490;28;20031;-82
2022/12/15 03:13:51;;;;;;;36.40;18.45;;;;;;;;;;5075326;28;20119;-81
2022/12/15 03:16:16;;;;;;;37.50;18.92;;;;;;;;;;5040533;28;20028;-82
2022/12/15 03:18:41;;;;;;;34.40;18.48;;;;;;;;;;5056437;28;20415;-82
2022/12/15 03:21:07;;;;;;;34.05;18.15;;;;;;;;;;5056395;28;20461;-82
2022/12/15 03:23:32;;;;;;;32.92;17.90;;;;;;;;;;5040479;28;20449;-83
2022/12/15 03:25:58;;;;;;;32.92;18.67;;;;;;;;;;5059431;28;20037;-82
2022/12/15 03:28:23;;;;;;;35.67;18.30;;;;;;;;;;5060092;28;20453;-82
2022/12/15 03:30:49;;;;;;;32.85;17.55;;;;;;;;;;5078273;28;20032;-82
2022/12/15 03:33:14;;;;;;;36.80;18.98;;;;;;;;;;5077760;28;20048;-82
2022/12/15 03:35:40;;;;;;;31.95;17.80;;;;;;;;;;5043787;28;20037;-83
2022/12/15 03:38:05;;;;;;;31.50;17.23;;;;;;;;;;5078056;28;20041;-83
2022/12/15 03:40:31;;;;;;;37.17;19.13;;;;;;;;;;5077770;28;20027;-82
2022/12/15 03:42:57;;;;;;;37.17;20.20;;;;;;;;;;5043565;28;20038;-82
2022/12/15 03:45:24;;;;;;;38.78;22.08;;;;;;;;;;5059776;28;20023;-82
2022/12/15 03:47:49;;;;;;;38.08;21.15;;;;;;;;;;5060183;28;20123;-82
2022/12/15 03:50:19;;;;;;;36.30;19.33;;;;;;;;;;5059850;28;20421;-83
2022/12/15 03:52:48;;;;;;;32.10;18.00;;;;;;;;;;5043932;28;20035;-82
2022/12/15 03:55:14;;;;;;;32.33;17.92;;;;;;;;;;5060532;28;20163;-83
2022/12/15 03:57:41;;;;;;;33.13;17.67;;;;;;;;;;5059914;28;20504;-82
2022/12/15 04:00:06;;;;;;;37.17;20.58;;;;;;;;;;5059774;28;20038;-85
2022/12/15 04:02:32;;;;;;;43.40;23.40;;;;;;;;;;5059779;28;20036;-84
2022/12/15 04:04:57;;;;;;;42.47;23.52;;;;;;;;;;5059744;28;20037;-83
2022/12/15 04:07:23;;;;;;;38.80;21.42;;;;;;;;;;5042968;28;20513;-82
2022/12/15 04:09:48;;;;;;;41.17;21.65;;;;;;;;;;5070957;28;20028;-81
2022/12/15 04:12:14;;;;;;;36.15;19.65;;;;;;;;;;5093675;28;20033;-82
2022/12/15 04:14:41;;;;;;;39.00;20.65;;;;;;;;;;5073384;28;20039;-83
2022/12/15 04:17:10;;;;;;;38.20;19.75;;;;;;;;;;5041771;28;20040;-82
2022/12/15 04:22:19;;;;;;;38.20;20.30;;;;;;;;;;5094547;28;20050;-84
2022/12/15 05:33:08;;;;;;;56.63;28.30;;;;;;;;;;5058399;28;20068;-85
2022/12/15 05:35:34;;;;;;;51.92;27.35;;;;;;;;;;5074057;28;20036;-84
2022/12/15 05:37:59;;;;;;;52.13;28.02;;;;;;;;;;5073795;28;20032;-84
2022/12/15 05:40:25;;;;;;;52.95;28.65;;;;;;;;;;5050268;28;20033;-83
2022/12/15 05:42:50;;;;;;;55.25;29.25;;;;;;;;;;5002031;28;20120;-83
2022/12/15 05:45:17;;;;;;;61.63;31.95;;;;;;;;;;5048451;28;20037;-84
2022/12/15 05:47:42;;;;;;;74.30;34.85;;;;;;;;;;5034910;28;20112;-84
2022/12/15 05:50:11;;;;;;;69.45;35.20;;;;;;;;;;5049852;28;20056;-84
2022/12/15 05:52:43;;;;;;;77.75;38.35;;;;;;;;;;5038263;28;20119;-84
2022/12/15 05:55:13;;;;;;;81.65;41.13;;;;;;;;;;5025402;28;20084;-84
2022/12/15 05:57:38;;;;;;;85.65;43.38;;;;;;;;;;5030252;28;20044;-83
2022/12/15 06:00:10;;;;;;;95.22;45.70;;;;;;;;;;5048590;28;20112;-83
2022/12/15 06:02:46;;;;;;;96.03;46.97;;;;;;;;;;5043423;28;20474;-84
2022/12/15 06:05:14;;;;;;;93.00;46.00;;;;;;;;;;4995531;28;20039;-82
2022/12/15 06:07:39;;;;;;;94.38;48.22;;;;;;;;;;5023381;28;20041;-79
2022/12/15 06:10:05;;;;;;;100.80;48.67;;;;;;;;;;5053310;28;20044;-79
2022/12/15 06:12:30;;;;;;;87.53;44.83;;;;;;;;;;5044023;28;20036;-83
2022/12/15 06:14:56;;;;;;;87.85;40.40;;;;;;;;;;5047935;28;20068;-81
2022/12/15 06:17:21;;;;;;;73.95;36.15;;;;;;;;;;5047159;28;20029;-84
2022/12/15 06:19:47;;;;;;;91.93;46.55;;;;;;;;;;4991635;28;20021;-84
2022/12/15 06:22:13;;;;;;;229.43;116.53;;;;;;;;;;5027939;28;20033;-84
2022/12/15 06:24:38;;;;;;;209.60;103.95;;;;;;;;;;5043899;28;20496;-80
2022/12/15 06:27:05;;;;;;;165.90;77.72;;;;;;;;;;5048967;28;20037;-85
2022/12/15 06:29:30;;;;;;;103.03;48.90;;;;;;;;;;5011001;28;20052;-83
2022/12/15 06:31:56;;;;;;;54.90;29.77;;;;;;;;;;5044530;28;20072;-85
2022/12/15 06:34:22;;;;;;;54.55;29.30;;;;;;;;;;5033194;28;20041;-85
2022/12/15 06:36:47;;;;;;;65.88;32.05;;;;;;;;;;5022270;28;20056;-81
2022/12/15 06:39:14;;;;;;;58.35;30.38;;;;;;;;;;5032570;28;20047;-80
2022/12/15 06:41:43;;;;;;;63.97;29.73;;;;;;;;;;5053108;28;20025;-79
2022/12/15 06:44:14;;;;;;;53.38;28.70;;;;;;;;;;5044778;28;20991;-81
2022/12/15 06:46:40;;;;;;;50.28;26.05;;;;;;;;;;5006824;28;20037;-81
2022/12/15 06:49:06;;;;;;;48.75;25.90;;;;;;;;;;5027915;28;20033;-84
2022/12/15 06:51:37;;;;;;;48.72;26.40;;;;;;;;;;5045145;28;20435;-84
2022/12/15 06:54:03;;;;;;;56.10;26.55;;;;;;;;;;5032065;28;20054;-79
2022/12/15 06:56:31;;;;;;;51.55;26.13;;;;;;;;;;5047635;28;20107;-80
2022/12/15 06:58:57;;;;;;;47.88;25.40;;;;;;;;;;5028087;28;20033;-79
2022/12/15 07:01:23;;;;;;;58.50;27.73;;;;;;;;;;5036969;28;20091;-79
2022/12/15 07:03:49;;;;;;;53.45;26.67;;;;;;;;;;5039832;28;20029;-79
2022/12/15 07:06:15;;;;;;;61.28;28.67;;;;;;;;;;5007420;28;20033;-82
2022/12/15 07:08:41;;;;;;;64.88;31.55;;;;;;;;;;5040574;28;20070;-82
2022/12/15 07:11:07;;;;;;;65.90;33.33;;;;;;;;;;5041177;28;20043;-80
2022/12/15 07:13:33;;;;;;;64.78;32.78;;;;;;;;;;5009442;28;20040;-82
2022/12/15 07:15:59;;;;;;;61.95;32.47;;;;;;;;;;5048571;28;20032;-80
2022/12/15 07:18:25;;;;;;;70.80;34.15;;;;;;;;;;5021874;28;20089;-79
2022/12/15 07:20:50;;;;;;;76.72;34.92;;;;;;;;;;5049588;28;20056;-81
2022/12/15 07:23:16;;;;;;;87.20;39.70;;;;;;;;;;5028044;28;20028;-81
2022/12/15 07:25:41;;;;;;;93.47;43.95;;;;;;;;;;5045086;28;20489;-81
2022/12/15 07:28:07;;;;;;;104.40;47.88;;;;;;;;;;5019853;28;20078;-81
2022/12/15 07:30:33;;;;;;;111.57;52.30;;;;;;;;;;5052261;28;20114;-80
2022/12/15 07:32:58;;;;;;;82.75;39.35;;;;;;;;;;5028659;28;20472;-80
2022/12/15 07:35:24;;;;;;;80.75;39.63;;;;;;;;;;5022214;28;20032;-81
2022/12/15 07:37:49;;;;;;;71.10;35.58;;;;;;;;;;5035566;28;20198;-80
2022/12/15 07:40:15;;;;;;;62.20;32.47;;;;;;;;;;5028808;28;20445;-81
2022/12/15 07:42:40;;;;;;;68.72;34.17;;;;;;;;;;5027624;28;20453;-82
2022/12/15 07:45:06;;;;;;;79.20;38.45;;;;;;;;;;5033154;28;20040;-81
2022/12/15 07:47:53;;;;;;;75.30;39.78;;;;;;;;;;5051528;28;20109;-81
2022/12/15 07:50:22;;;;;;;80.43;39.25;;;;;;;;;;5051821;28;20145;-80
2022/12/15 07:52:49;;;;;;;74.75;38.70;;;;;;;;;;5030280;28;20219;-79
2022/12/15 07:55:15;;;;;;;80.28;43.47;;;;;;;;;;5016125;28;20103;-83
2022/12/15 07:57:40;;;;;;;79.55;43.15;;;;;;;;;;5052621;28;20059;-83
2022/12/15 08:00:09;;;;;;;83.28;43.70;;;;;;;;;;5052950;28;20069;-83
2022/12/15 08:02:36;;;;;;;96.15;52.92;;;;;;;;;;5010340;28;20034;-83
2022/12/15 08:05:01;;;;;;;94.80;49.92;;;;;;;;;;5015761;28;20080;-85
2022/12/15 08:07:27;;;;;;;89.95;44.63;;;;;;;;;;5034931;28;20458;-86
2022/12/15 08:09:52;;;;;;;77.80;41.60;;;;;;;;;;5006626;28;20590;-85
2022/12/15 08:12:18;;;;;;;79.45;40.30;;;;;;;;;;5017270;28;20068;-81
2022/12/15 08:14:43;;;;;;;72.55;38.05;;;;;;;;;;5036120;28;20026;-80
2022/12/15 08:17:09;;;;;;;73.45;38.88;;;;;;;;;;5000651;28;20249;-80
2022/12/15 08:19:34;;;;;;;71.18;36.67;;;;;;;;;;5016187;28;20041;-83
2022/12/15 08:22:00;;;;;;;66.43;34.72;;;;;;;;;;5035091;28;20427;-81
2022/12/15 08:24:25;;;;;;;71.07;35.40;;;;;;;;;;5038705;28;20036;-80
2022/12/15 08:26:53;;;;;;;72.50;35.55;;;;;;;;;;5052649;28;20123;-79
2022/12/15 08:29:19;;;;;;;71.82;37.13;;;;;;;;;;5066579;28;20025;-80
2022/12/15 08:31:45;;;;;;;85.28;43.30;;;;;;;;;;5049844;28;20044;-79
2022/12/15 08:34:10;;;;;;;85.75;45.33;;;;;;;;;;5024774;28;20053;-79
2022/12/15 08:36:36;;;;;;;93.35;44.75;;;;;;;;;;5022076;28;20405;-79
2022/12/15 08:39:02;;;;;;;90.50;43.72;;;;;;;;;;5036120;28;20037;-80
2022/12/15 08:41:29;;;;;;;74.70;40.35;;;;;;;;;;5034235;28;20029;-79
2022/12/15 08:43:55;;;;;;;86.80;45.42;;;;;;;;;;5015666;28;20072;-80
2022/12/15 08:46:28;;;;;;;85.03;46.13;;;;;;;;;;5022000;28;20068;-80
2022/12/15 08:48:54;;;;;;;69.32;37.28;;;;;;;;;;5015723;28;20075;-79
2022/12/15 08:51:20;;;;;;;62.53;33.10;;;;;;;;;;5048071;28;20061;-79
2022/12/15 08:53:45;;;;;;;52.83;28.23;;;;;;;;;;5049312;28;20074;-80
2022/12/15 08:56:16;;;;;;;44.53;24.05;;;;;;;;;;5042740;28;20033;-80
2022/12/15 08:58:43;;;;;;;47.45;25.55;;;;;;;;;;5047547;28;20095;-81
2022/12/15 09:01:17;;;;;;;39.40;22.52;;;;;;;;;;5027255;28;20063;-80
2022/12/15 09:03:42;;;;;;;42.63;22.95;;;;;;;;;;5015047;28;20033;-81
2022/12/15 09:06:12;;;;;;;33.60;19.02;;;;;;;;;;5050575;28;20079;-79
2022/12/15 09:08:38;;;;;;;35.67;19.83;;;;;;;;;;5013691;28;20383;-78
2022/12/15 09:11:04;;;;;;;30.90;17.15;;;;;;;;;;5013743;28;20025;-79
2022/12/15 09:13:30;;;;;;;30.98;17.33;;;;;;;;;;4998274;28;20528;-78
2022/12/15 09:16:06;;;;;;;27.02;16.35;;;;;;;;;;5033559;28;20025;-79
2022/12/15 09:18:32;;;;;;;31.20;16.70;;;;;;;;;;5033688;28;20041;-79
2022/12/15 09:21:02;;;;;;;32.38;18.13;;;;;;;;;;5017367;28;20051;-80
2022/12/15 09:23:28;;;;;;;37.03;19.02;;;;;;;;;;5035055;28;20022;-79
2022/12/15 09:26:06;;;;;;;30.05;16.50;;;;;;;;;;5017547;28;20040;-79
2022/12/15 09:28:31;;;;;;;28.85;14.85;;;;;;;;;;5000934;28;20094;-79
2022/12/15 09:31:14;;;;;;;32.63;16.38;;;;;;;;;;5017715;28;20017;-79
2022/12/15 09:33:40;;;;;;;33.90;16.40;;;;;;;;;;5000457;28;20140;-79
2022/12/15 09:36:06;;;;;;;33.33;18.40;;;;;;;;;;5016537;28;20120;-80
2022/12/15 09:38:33;;;;;;;31.75;16.85;;;;;;;;;;5017325;28;20517;-79
2022/12/15 09:41:26;;;;;;;29.05;15.40;;;;;;;;;;4999873;28;20465;-80
2022/12/15 09:43:58;;;;;;;29.48;15.80;;;;;;;;;;5029200;28;20051;-80
2022/12/15 09:47:10;;;;;;;28.58;15.57;;;;;;;;;;5045527;28;20029;-76
2022/12/15 09:49:46;;;;;;;30.20;16.77;;;;;;;;;;5036922;28;20034;-76
2022/12/15 09:52:15;;;;;;;28.48;15.80;;;;;;;;;;5042538;28;20099;-79
2022/12/15 09:54:41;;;;;;;36.70;17.00;;;;;;;;;;5059843;28;20461;-82
2022/12/15 09:57:11;;;;;;;37.40;17.95;;;;;;;;;;5030877;28;20086;-80
2022/12/15 09:59:39;;;;;;;32.20;17.20;;;;;;;;;;5006921;28;20381;-77
2022/12/15 10:02:41;;;;;;;28.45;16.98;;;;;;;;;;5034334;28;20759;-79
2022/12/15 10:05:09;;;;;;;33.20;17.98;;;;;;;;;;5036715;28;20044;-77
2022/12/15 10:07:40;;;;;;;28.73;15.82;;;;;;;;;;5042546;28;20037;-82
2022/12/15 10:10:24;;;;;;;35.88;19.65;;;;;;;;;;5008914;28;20030;-77
2022/12/15 10:12:51;;;;;;;29.08;16.13;;;;;;;;;;5014689;28;20033;-79
2022/12/15 10:15:21;;;;;;;29.38;16.67;;;;;;;;;;5031861;28;20025;-79
2022/12/15 10:17:47;;;;;;;;;;;;;;;;;;5030712;28;20041;-79
2022/12/15 10:20:26;;;;;;;29.33;16.40;;;;;;;;;;5032850;28;20099;-79
2022/12/15 10:22:52;;;;;;;29.48;15.90;;;;;;;;;;5033080;28;20099;-79
2022/12/15 10:25:28;;;;;;;31.90;17.33;;;;;;;;;;5034272;28;20445;-80
2022/12/15 10:28:08;;;;;;;31.08;17.00;;;;;;;;;;5053120;28;20120;-80
2022/12/15 10:30:34;;;;;;;28.90;17.15;;;;;;;;;;5053592;28;20037;-80
2022/12/15 10:33:25;;;;;;;51.60;25.77;;;;;;;;;;5053110;28;20040;-80
2022/12/15 10:35:56;;;;;;;37.53;18.63;;;;;;;;;;5034612;28;20066;-79
2022/12/15 10:38:36;;;;;;;35.08;17.38;;;;;;;;;;5045735;28;20051;-80
2022/12/15 10:41:03;;;;;;;38.92;19.55;;;;;;;;;;5031323;28;20123;-79
2022/12/15 10:43:32;;;;;;;30.38;16.65;;;;;;;;;;5016930;28;20045;-81
2022/12/15 10:46:12;;;;;;;29.60;15.15;;;;;;;;;;5027923;28;20021;-80
2022/12/15 10:48:39;;;;;;;31.48;16.05;;;;;;;;;;5009112;28;20056;-78
2022/12/15 10:51:20;;;;;;;34.38;17.55;;;;;;;;;;5041979;28;20033;-78
2022/12/15 10:53:54;;;;;;;36.25;20.67;;;;;;;;;;5032163;28;20037;-79
2022/12/15 10:56:33;;;;;;;30.92;17.27;;;;;;;;;;5031857;28;20064;-80
2022/12/15 10:59:02;;;;;;;35.47;19.85;;;;;;;;;;5055288;28;20145;-80
2022/12/15 11:01:29;;;;;;;36.25;19.88;;;;;;;;;;5033308;28;20061;-80
2022/12/15 11:03:55;;;;;;;35.95;19.65;;;;;;;;;;5042969;28;20040;-80
2022/12/15 11:06:29;;;;;;;33.78;18.42;;;;;;;;;;4989177;28;20033;-81
2022/12/15 11:09:24;;;;;;;29.30;16.90;;;;;;;;;;5049871;28;20086;-81
2022/12/15 11:14:48;;;;;;;36.40;20.05;;;;;;;;;;5040502;28;20489;-80
2022/12/15 11:17:18;;;;;;;32.15;19.30;;;;;;;;;;5036529;28;20036;-79
2022/12/15 11:26:15;;;;;;;35.20;19.10;;;;;;;;;;5614102;22;20103;-80
2022/12/15 11:28:45;;;;;;;;;;;;;;;;;;5010208;28;20029;-82
2022/12/15 11:31:18;;;;;;;25.60;14.95;;;;;;;;;;5038626;22;19915;-80
2022/12/15 11:33:43;;;;;;;28.20;15.73;;;;;;;;;;5065848;28;20036;-80
2022/12/15 11:36:43;;;;;;;33.30;18.70;;;;;;;;;;5049486;28;20369;-80
2022/12/15 11:39:29;;;;;;;36.53;19.48;;;;;;;;;;5047662;28;20048;-80
2022/12/15 11:42:22;;;;;;;27.00;15.95;;;;;;;;;;5009929;28;20186;-81
2022/12/15 11:45:01;;;;;;;35.78;19.60;;;;;;;;;;5041084;28;20107;-77
2022/12/15 11:47:55;;;;;;;29.42;16.27;;;;;;;;;;5064329;28;20021;-82
2022/12/15 11:50:20;;;;;;;33.03;18.73;;;;;;;;;;5046001;28;20453;-82
2022/12/15 12:06:01;;;;;;;27.92;15.25;;;;;;;;;;5726222;22;20462;-82
2022/12/15 12:08:34;;;;;;;54.60;26.75;;;;;;;;;;5018742;28;20060;-82
2022/12/15 12:11:28;;;;;;;41.75;22.05;;;;;;;;;;5038257;28;20029;-84
2022/12/15 12:14:09;;;;;;;47.38;24.30;;;;;;;;;;5024385;28;20069;-83
2022/12/15 12:17:03;;;;;;;45.53;24.38;;;;;;;;;;5042716;28;20052;-83
2022/12/15 12:19:43;;;;;;;46.30;23.98;;;;;;;;;;5007022;28;20041;-80
2022/12/15 12:22:29;;;;;;;48.33;26.67;;;;;;;;;;4997781;28;20021;-82
2022/12/15 12:24:58;;;;;;;53.47;28.38;;;;;;;;;;5029913;28;20540;-81
2022/12/15 12:27:34;;;;;;;53.75;29.27;;;;;;;;;;5011783;28;20037;-82
2022/12/15 12:30:27;;;;;;;41.13;23.73;;;;;;;;;;5028618;28;20060;-82
2022/12/15 12:33:05;;;;;;;52.75;27.92;;;;;;;;;;5021727;28;20037;-81
2022/12/15 12:35:39;;;;;;;52.42;27.20;;;;;;;;;;5000471;28;20021;-80
2022/12/15 12:38:08;;;;;;;46.47;25.98;;;;;;;;;;5012722;28;20049;-83
2022/12/15 12:40:40;;;;;;;48.33;26.42;;;;;;;;;;5013030;28;20042;-82
2022/12/15 12:43:10;;;;;;;43.50;24.70;;;;;;;;;;5031359;28;20407;-83
2022/12/15 12:45:35;;;;;;;;;;;;;;;;;;5031353;28;20041;-82
2022/12/15 12:48:11;;;;;;;38.25;22.15;;;;;;;;;;5029073;28;19932;-81
2022/12/15 12:50:38;;;;;;;41.08;22.10;;;;;;;;;;4980813;28;20417;-82
2022/12/15 12:53:04;;;;;;;42.00;24.45;;;;;;;;;;5029209;28;20034;-82
2022/12/15 12:55:40;;;;;;;45.47;23.98;;;;;;;;;;5013374;28;20060;-83
2022/12/15 12:58:30;;;;;;;41.47;24.38;;;;;;;;;;5031418;28;20037;-82
2022/12/15 13:01:16;;;;;;;45.00;25.42;;;;;;;;;;5032743;28;20033;-82
2022/12/15 13:03:42;;;;;;;47.67;26.25;;;;;;;;;;5033098;28;20034;-83
2022/12/15 13:06:21;;;;;;;45.33;24.08;;;;;;;;;;4989660;28;20046;-83
2022/12/15 13:08:50;;;;;;;33.28;19.10;;;;;;;;;;4995876;28;20038;-82
2022/12/15 13:11:52;;;;;;;41.50;24.35;;;;;;;;;;4995945;28;20037;-83
2022/12/15 13:14:39;;;;;;;39.90;20.90;;;;;;;;;;4997487;28;20036;-83
2022/12/15 13:17:26;;;;;;;39.45;22.20;;;;;;;;;;4997631;28;20073;-83
2022/12/15 13:19:57;;;;;;;44.83;23.33;;;;;;;;;;5005984;28;20053;-83
2022/12/15 13:22:31;;;;;;;41.67;22.50;;;;;;;;;;4998846;28;20021;-82
2022/12/15 13:24:56;;;;;;;40.65;21.88;;;;;;;;;;4983506;28;20467;-84
2022/12/15 13:27:22;;;;;;;40.35;19.70;;;;;;;;;;5015934;28;20025;-84
2022/12/15 13:30:06;;;;;;;41.53;21.30;;;;;;;;;;4998331;28;20033;-83
2022/12/15 13:32:42;;;;;;;43.83;22.73;;;;;;;;;;5000366;28;20114;-84
2022/12/15 13:35:11;;;;;;;49.83;23.67;;;;;;;;;;4982441;28;20120;-84
2022/12/15 13:37:50;;;;;;;50.25;24.25;;;;;;;;;;5016325;28;20036;-85
2022/12/15 13:40:21;;;;;;;48.08;22.45;;;;;;;;;;5016873;28;20036;-84
2022/12/15 13:42:55;;;;;;;49.83;24.10;;;;;;;;;;5001543;28;20080;-84
2022/12/15 13:45:33;;;;;;;47.42;23.35;;;;;;;;;;4992206;28;20486;-85
2022/12/15 13:47:58;;;;;;;65.55;29.83;;;;;;;;;;5005084;28;20056;-85
2022/12/15 13:50:41;;;;;;;60.72;30.17;;;;;;;;;;5002825;28;20034;-84
2022/12/15 13:53:09;;;;;;;52.00;26.38;;;;;;;;;;4999051;28;20128;-84
2022/12/15 13:55:37;;;;;;;55.58;26.85;;;;;;;;;;4965653;28;20160;-83
2022/12/15 13:58:14;;;;;;;57.75;28.45;;;;;;;;;;4982007;28;20037;-83
2022/12/15 14:00:47;;;;;;;56.70;28.33;;;;;;;;;;4996746;28;20034;-84
2022/12/15 14:03:12;;;;;;;60.03;29.92;;;;;;;;;;4963507;28;20379;-84
2022/12/15 14:05:40;;;;;;;61.13;29.95;;;;;;;;;;4983319;28;20046;-81
2022/12/15 14:08:12;;;;;;;65.88;30.45;;;;;;;;;;4997378;28;20072;-86
2022/12/15 14:10:40;;;;;;;64.65;32.70;;;;;;;;;;4997708;28;20034;-84
2022/12/15 14:13:15;;;;;;;79.00;37.08;;;;;;;;;;5015345;28;20030;-83
2022/12/15 14:15:43;;;;;;;63.28;32.78;;;;;;;;;;4997482;28;20073;-82
2022/12/15 14:18:38;;;;;;;52.65;27.33;;;;;;;;;;4981268;28;20065;-83
2022/12/15 14:21:20;;;;;;;56.83;28.65;;;;;;;;;;4985157;28;20054;-84
2022/12/15 14:23:46;;;;;;;54.65;28.15;;;;;;;;;;4999474;28;20466;-83
2022/12/15 14:26:12;;;;;;;58.08;28.48;;;;;;;;;;4981170;28;20030;-81
2022/12/15 14:28:39;;;;;;;56.22;29.17;;;;;;;;;;4997491;28;20439;-83
2022/12/15 14:31:10;;;;;;;61.83;30.15;;;;;;;;;;5014894;28;20036;-82
2022/12/15 14:33:36;;;;;;;63.05;31.30;;;;;;;;;;4981913;28;20382;-82
2022/12/15 14:36:04;;;;;;;66.05;31.27;;;;;;;;;;4997749;28;20022;-81
2022/12/15 14:38:35;;;;;;;67.85;34.42;;;;;;;;;;4981329;28;20030;-82
2022/12/15 14:41:01;;;;;;;61.97;29.80;;;;;;;;;;4981858;28;20038;-82
2022/12/15 14:43:28;;;;;;;62.95;32.90;;;;;;;;;;5002815;28;20033;-84
2022/12/15 14:46:18;;;;;;;63.22;32.75;;;;;;;;;;5016337;28;20052;-84
2022/12/15 14:48:53;;;;;;;64.30;32.00;;;;;;;;;;5033666;28;20029;-82
2022/12/15 14:51:19;;;;;;;67.55;34.70;;;;;;;;;;5032592;28;20052;-83
2022/12/15 14:53:47;;;;;;;73.55;36.55;;;;;;;;;;5033644;28;20126;-83
2022/12/15 14:56:25;;;;;;;71.97;36.70;;;;;;;;;;5034256;28;20393;-83
2022/12/15 14:59:02;;;;;;;79.63;37.50;;;;;;;;;;5033345;28;20092;-82
2022/12/15 15:01:50;;;;;;;89.10;40.53;;;;;;;;;;5034579;28;20079;-86
2022/12/15 15:04:28;;;;;;;95.28;43.08;;;;;;;;;;5016034;28;20449;-83
2022/12/15 15:06:54;;;;;;;128.98;61.08;;;;;;;;;;4999994;28;20069;-82
2022/12/15 15:09:24;;;;;;;109.53;51.47;;;;;;;;;;4999382;28;20033;-83
2022/12/15 15:12:26;;;;;;;111.55;52.78;;;;;;;;;;4999117;28;20041;-80
2022/12/15 15:14:52;;;;;;;84.95;40.42;;;;;;;;;;5014085;28;20398;-81
2022/12/15 15:17:22;;;;;;;89.82;41.50;;;;;;;;;;5015586;28;20017;-81
2022/12/15 15:19:56;;;;;;;80.78;39.10;;;;;;;;;;5017256;28;20028;-83
2022/12/15 15:22:38;;;;;;;89.40;40.30;;;;;;;;;;5022257;28;20029;-80
2022/12/15 15:25:32;;;;;;;85.50;39.03;;;;;;;;;;5006704;28;20082;-81
2022/12/15 15:28:21;;;;;;;86.65;41.50;;;;;;;;;;5040800;28;20042;-80
2022/12/15 15:30:54;;;;;;;83.30;39.35;;;;;;;;;;5020279;28;20049;-81
2022/12/15 15:33:21;;;;;;;89.75;44.10;;;;;;;;;;5022795;28;20458;-81
2022/12/15 15:35:49;;;;;;;100.05;48.65;;;;;;;;;;5040502;28;20343;-81
2022/12/15 15:38:18;;;;;;;106.68;49.72;;;;;;;;;;4989828;28;20377;-81
2022/12/15 15:40:51;;;;;;;115.00;54.63;;;;;;;;;;5022609;28;20389;-81
2022/12/15 15:43:18;;;;;;;101.03;48.47;;;;;;;;;;5055618;28;20370;-80
2022/12/15 15:45:43;;;;;;;116.63;54.35;;;;;;;;;;5040277;28;20029;-81
2022/12/15 15:48:13;;;;;;;113.22;54.03;;;;;;;;;;5007281;28;20033;-80
2022/12/15 15:50:40;;;;;;;127.28;58.30;;;;;;;;;;5009095;28;20029;-81
2022/12/15 15:53:09;;;;;;;131.25;58.97;;;;;;;;;;5040337;28;20022;-80
2022/12/15 15:55:34;;;;;;;135.55;63.70;;;;;;;;;;5006606;28;20120;-82
2022/12/15 15:58:00;;;;;;;149.52;68.05;;;;;;;;;;5022815;28;20068;-81
2022/12/15 16:00:25;;;;;;;195.35;87.85;;;;;;;;;;5040621;28;20026;-81
2022/12/15 16:02:51;;;;;;;173.48;78.28;;;;;;;;;;5022660;28;20029;-81
2022/12/15 16:05:16;;;;;;;186.20;82.93;;;;;;;;;;5016565;28;20018;-81
2022/12/15 16:07:42;;;;;;;192.82;85.93;;;;;;;;;;5004458;28;20038;-82
2022/12/15 16:10:15;;;;;;;185.57;82.22;;;;;;;;;;5005800;28;20033;-81
2022/12/15 16:12:51;;;;;;;197.32;87.10;;;;;;;;;;5004792;28;20022;-82
2022/12/15 16:15:28;;;;;;;194.73;90.05;;;;;;;;;;4989253;28;20034;-80
2022/12/15 16:17:53;;;;;;;210.73;96.88;;;;;;;;;;4989628;28;20052;-80
2022/12/15 16:20:20;;;;;;;208.95;93.72;;;;;;;;;;5003667;28;20029;-81
2022/12/15 16:22:47;;;;;;;229.00;104.97;;;;;;;;;;4971320;28;20034;-81
2022/12/15 16:25:29;;;;;;;262.23;115.10;;;;;;;;;;5003683;28;20030;-81
2022/12/15 16:27:54;;;;;;;253.68;119.50;;;;;;;;;;5020896;28;20136;-81
2022/12/15 16:30:25;;;;;;;264.48;120.28;;;;;;;;;;5020375;28;20034;-81
2022/12/15 16:32:50;;;;;;;276.33;122.47;;;;;;;;;;4983337;28;20729;-81
2022/12/15 16:35:16;;;;;;;285.08;123.55;;;;;;;;;;4999231;28;20029;-81
2022/12/15 16:37:45;;;;;;;267.95;118.85;;;;;;;;;;4999566;28;20034;-81
2022/12/15 16:40:25;;;;;;;283.90;118.05;;;;;;;;;;5000003;28;20034;-81
2022/12/15 16:42:55;;;;;;;256.38;113.13;;;;;;;;;;4999501;28;20018;-80
2022/12/15 16:45:21;;;;;;;242.27;103.80;;;;;;;;;;4999565;28;20033;-80
2022/12/15 16:47:46;;;;;;;261.73;111.32;;;;;;;;;;4983043;28;20028;-80
2022/12/15 16:50:13;;;;;;;271.77;117.13;;;;;;;;;;4999054;28;20026;-79
2022/12/15 16:52:40;;;;;;;286.25;119.10;;;;;;;;;;4999694;28;20025;-81
2022/12/15 16:55:05;;;;;;;269.30;112.43;;;;;;;;;;4983215;28;20025;-81
2022/12/15 16:57:31;;;;;;;263.60;115.63;;;;;;;;;;4999159;28;20033;-80
2022/12/15 16:59:56;;;;;;;256.42;114.03;;;;;;;;;;5016739;28;20034;-81
2022/12/15 17:02:27;;;;;;;262.48;113.95;;;;;;;;;;5016647;28;20040;-80
2022/12/15 17:04:54;;;;;;;261.08;118.10;;;;;;;;;;4998711;28;20030;-80
2022/12/15 17:07:19;;;;;;;254.82;115.43;;;;;;;;;;5016252;28;20045;-80
2022/12/15 17:09:45;;;;;;;253.73;114.35;;;;;;;;;;4982594;28;20033;-80
2022/12/15 17:12:16;;;;;;;248.68;112.00;;;;;;;;;;5016235;28;20033;-80
2022/12/15 17:14:42;;;;;;;246.93;110.38;;;;;;;;;;4999356;28;20092;-79
2022/12/15 17:17:15;;;;;;;235.13;107.80;;;;;;;;;;4998942;28;20029;-81
2022/12/15 17:19:40;;;;;;;221.05;100.20;;;;;;;;;;4982269;28;20030;-80
2022/12/15 17:22:07;;;;;;;222.23;101.50;;;;;;;;;;4997968;28;20052;-80